sensor_id;sensor_type;location;lat;lon;timestamp;pressure;altitude;pressure_sealevel;temperature;humidity
66430;BME280;53242;51.694;10.006;2023-04-05T00:02:13;100391.53;;;2.63;59.91
66430;BME280;53242;51.694;10.006;2023-04-05T00:04:35;100395.34;;;2.59;59.88
66430;BME280;53242;51.694;10.006;2023-04-05T00:07:00;100388.91;;;2.75;59.18
66430;BME280;53242;51.694;10.006;2023-04-05T00:09:23;100388.31;;;2.71;58.72
66430;BME280;53242;51.694;10.006;2023-04-05T00:11:46;100390.59;;;2.65;59.60
66430;BME280;53242;51.694;10.006;2023-04-05T00:14:09;100395.06;;;2.74;59.76
66430;BME280;53242;51.694;10.006;2023-04-05T00:16:31;100391.66;;;2.73;59.68
66430;BME280;53242;51.694;10.006;2023-04-05T00:18:57;100395.06;;;2.74;59.58
66430;BME280;53242;51.694;10.006;2023-04-05T00:21:22;100388.03;;;2.86;60.04
66430;BME280;53242;51.694;10.006;2023-04-05T00:23:45;100389.84;;;2.74;59.05
66430;BME280;53242;51.694;10.006;2023-04-05T00:26:08;100383.91;;;2.83;59.00
66430;BME280;53242;51.694;10.006;2023-04-05T00:28:31;100372.56;;;2.73;58.91
66430;BME280;53242;51.694;10.006;2023-04-05T00:30:53;100375.31;;;2.60;59.35
66430;BME280;53242;51.694;10.006;2023-04-05T00:33:16;100369.97;;;2.61;59.71
66430;BME280;53242;51.694;10.006;2023-04-05T00:35:38;100375.91;;;2.41;59.65
66430;BME280;53242;51.694;10.006;2023-04-05T00:38:01;100378.41;;;2.31;59.68
66430;BME280;53242;51.694;10.006;2023-04-05T00:40:23;100375.47;;;2.24;60.26
66430;BME280;53242;51.694;10.006;2023-04-05T00:42:46;100370.47;;;2.21;60.16
66430;BME280;53242;51.694;10.006;2023-04-05T00:45:09;100372.00;;;2.24;60.13
66430;BME280;53242;51.694;10.006;2023-04-05T00:47:31;100365.75;;;2.26;60.33
66430;BME280;53242;51.694;10.006;2023-04-05T00:49:54;100366.78;;;2.12;60.63
66430;BME280;53242;51.694;10.006;2023-04-05T00:52:17;100363.03;;;2.05;60.90
66430;BME280;53242;51.694;10.006;2023-04-05T00:54:41;100362.44;;;2.13;61.20
66430;BME280;53242;51.694;10.006;2023-04-05T00:57:04;100361.59;;;2.12;61.15
66430;BME280;53242;51.694;10.006;2023-04-05T00:59:28;100352.25;;;2.21;61.06
66430;BME280;53242;51.694;10.006;2023-04-05T01:01:59;100350.47;;;2.22;60.64
66430;BME280;53242;51.694;10.006;2023-04-05T01:04:27;100359.00;;;2.24;60.03
66430;BME280;53242;51.694;10.006;2023-04-05T01:07:22;100358.88;;;2.37;60.50
66430;BME280;53242;51.694;10.006;2023-04-05T01:09:58;100361.00;;;2.43;59.86
66430;BME280;53242;51.694;10.006;2023-04-05T01:12:23;100365.25;;;2.55;59.81
66430;BME280;53242;51.694;10.006;2023-04-05T01:14:48;100370.22;;;2.47;59.04
66430;BME280;53242;51.694;10.006;2023-04-05T01:17:11;100370.34;;;2.45;59.02
66430;BME280;53242;51.694;10.006;2023-04-05T01:19:34;100373.31;;;2.41;59.78
66430;BME280;53242;51.694;10.006;2023-04-05T01:22:22;100370.69;;;2.41;60.59
66430;BME280;53242;51.694;10.006;2023-04-05T01:25:01;100363.97;;;2.16;60.64
66430;BME280;53242;51.694;10.006;2023-04-05T01:27:45;100371.53;;;2.07;60.47
66430;BME280;53242;51.694;10.006;2023-04-05T01:30:31;100368.47;;;2.13;60.76
66430;BME280;53242;51.694;10.006;2023-04-05T01:33:13;100365.50;;;2.18;60.69
66430;BME280;53242;51.694;10.006;2023-04-05T01:35:51;100362.31;;;2.03;60.90
66430;BME280;53242;51.694;10.006;2023-04-05T01:38:21;100369.63;;;1.98;60.67
66430;BME280;53242;51.694;10.006;2023-04-05T01:40:44;100361.13;;;1.85;61.16
66430;BME280;53242;51.694;10.006;2023-04-05T01:43:15;100361.47;;;1.91;61.45
66430;BME280;53242;51.694;10.006;2023-04-05T01:45:39;100354.09;;;1.74;61.14
66430;BME280;53242;51.694;10.006;2023-04-05T01:48:01;100357.22;;;1.90;61.35
66430;BME280;53242;51.694;10.006;2023-04-05T01:50:24;100355.06;;;1.84;61.17
66430;BME280;53242;51.694;10.006;2023-04-05T01:52:46;100344.44;;;1.87;61.31
66430;BME280;53242;51.694;10.006;2023-04-05T01:55:12;100348.56;;;1.90;61.43
66430;BME280;53242;51.694;10.006;2023-04-05T01:57:34;100347.28;;;2.07;60.90
66430;BME280;53242;51.694;10.006;2023-04-05T01:59:56;100348.34;;;1.93;61.01
66430;BME280;53242;51.694;10.006;2023-04-05T02:02:19;100350.81;;;1.94;60.66
66430;BME280;53242;51.694;10.006;2023-04-05T02:04:41;100353.53;;;1.93;61.48
66430;BME280;53242;51.694;10.006;2023-04-05T02:07:05;100359.94;;;1.89;62.11
66430;BME280;53242;51.694;10.006;2023-04-05T02:09:29;100352.59;;;1.94;62.00
66430;BME280;53242;51.694;10.006;2023-04-05T02:11:51;100355.34;;;2.04;61.26
66430;BME280;53242;51.694;10.006;2023-04-05T02:14:14;100359.22;;;1.87;61.91
66430;BME280;53242;51.694;10.006;2023-04-05T02:16:37;100358.72;;;1.81;62.19
66430;BME280;53242;51.694;10.006;2023-04-05T02:18:59;100347.75;;;1.78;62.41
66430;BME280;53242;51.694;10.006;2023-04-05T02:21:22;100348.09;;;1.85;62.26
66430;BME280;53242;51.694;10.006;2023-04-05T02:23:45;100338.97;;;1.79;62.98
66430;BME280;53242;51.694;10.006;2023-04-05T02:26:07;100339.22;;;1.76;62.65
66430;BME280;53242;51.694;10.006;2023-04-05T02:28:30;100340.16;;;1.75;62.38
66430;BME280;53242;51.694;10.006;2023-04-05T02:30:52;100339.66;;;1.70;62.20
66430;BME280;53242;51.694;10.006;2023-04-05T02:33:15;100339.47;;;1.73;61.87
66430;BME280;53242;51.694;10.006;2023-04-05T02:35:37;100346.31;;;1.85;62.29
66430;BME280;53242;51.694;10.006;2023-04-05T02:38:00;100335.16;;;1.60;62.01
66430;BME280;53242;51.694;10.006;2023-04-05T02:40:23;100338.50;;;1.62;62.31
66430;BME280;53242;51.694;10.006;2023-04-05T02:42:46;100332.69;;;1.59;62.55
66430;BME280;53242;51.694;10.006;2023-04-05T02:45:09;100334.44;;;1.47;62.49
66430;BME280;53242;51.694;10.006;2023-04-05T02:47:31;100333.56;;;1.35;62.46
66430;BME280;53242;51.694;10.006;2023-04-05T02:49:55;100344.28;;;1.55;62.19
66430;BME280;53242;51.694;10.006;2023-04-05T02:52:20;100335.59;;;1.43;62.79
66430;BME280;53242;51.694;10.006;2023-04-05T02:54:44;100342.69;;;1.41;62.70
66430;BME280;53242;51.694;10.006;2023-04-05T02:57:09;100343.38;;;1.31;63.20
66430;BME280;53242;51.694;10.006;2023-04-05T02:59:40;100348.44;;;1.22;63.52
66430;BME280;53242;51.694;10.006;2023-04-05T03:02:08;100338.66;;;1.37;63.45
66430;BME280;53242;51.694;10.006;2023-04-05T03:04:31;100341.03;;;1.40;63.05
66430;BME280;53242;51.694;10.006;2023-04-05T03:06:57;100341.63;;;1.43;62.82
66430;BME280;53242;51.694;10.006;2023-04-05T03:09:21;100341.41;;;1.46;62.66
66430;BME280;53242;51.694;10.006;2023-04-05T03:11:48;100341.41;;;1.46;62.48
66430;BME280;53242;51.694;10.006;2023-04-05T03:14:12;100342.00;;;1.50;62.48
66430;BME280;53242;51.694;10.006;2023-04-05T03:16:39;100334.28;;;1.37;62.85
66430;BME280;53242;51.694;10.006;2023-04-05T03:19:08;100327.31;;;1.38;63.20
66430;BME280;53242;51.694;10.006;2023-04-05T03:21:34;100333.00;;;1.43;62.89
66430;BME280;53242;51.694;10.006;2023-04-05T03:24:03;100327.53;;;1.35;63.14
66430;BME280;53242;51.694;10.006;2023-04-05T03:26:32;100330.06;;;1.12;63.93
66430;BME280;53242;51.694;10.006;2023-04-05T03:28:56;100330.56;;;1.17;64.37
66430;BME280;53242;51.694;10.006;2023-04-05T03:31:26;100323.78;;;1.03;64.44
66430;BME280;53242;51.694;10.006;2023-04-05T03:33:55;100326.88;;;1.08;64.03
66430;BME280;53242;51.694;10.006;2023-04-05T03:36:20;100320.69;;;0.98;64.47
66430;BME280;53242;51.694;10.006;2023-04-05T03:38:47;100317.75;;;1.03;64.67
66430;BME280;53242;51.694;10.006;2023-04-05T03:41:14;100313.97;;;1.07;64.56
66430;BME280;53242;51.694;10.006;2023-04-05T03:43:37;100310.44;;;1.08;64.34
66430;BME280;53242;51.694;10.006;2023-04-05T03:46:01;100310.44;;;1.08;64.10
66430;BME280;53242;51.694;10.006;2023-04-05T03:48:25;100315.75;;;1.06;64.20
66430;BME280;53242;51.694;10.006;2023-04-05T03:50:48;100316.44;;;0.97;64.14
66430;BME280;53242;51.694;10.006;2023-04-05T03:53:11;100316.06;;;1.02;64.25
66430;BME280;53242;51.694;10.006;2023-04-05T03:55:34;100319.53;;;0.78;64.76
66430;BME280;53242;51.694;10.006;2023-04-05T03:57:59;100322.88;;;0.91;65.22
66430;BME280;53242;51.694;10.006;2023-04-05T04:00:27;100312.00;;;0.86;65.43
66430;BME280;53242;51.694;10.006;2023-04-05T04:03:05;100307.41;;;0.90;65.58
66430;BME280;53242;51.694;10.006;2023-04-05T04:05:28;100304.25;;;0.97;65.17
66430;BME280;53242;51.694;10.006;2023-04-05T04:07:50;100305.38;;;0.82;66.01
66430;BME280;53242;51.694;10.006;2023-04-05T04:10:14;100303.06;;;0.90;65.34
66430;BME280;53242;51.694;10.006;2023-04-05T04:12:40;100301.88;;;0.94;65.35
66430;BME280;53242;51.694;10.006;2023-04-05T04:15:04;100298.50;;;0.81;65.57
66430;BME280;53242;51.694;10.006;2023-04-05T04:17:38;100298.06;;;0.87;65.41
66430;BME280;53242;51.694;10.006;2023-04-05T04:20:27;100301.06;;;0.70;65.29
66430;BME280;53242;51.694;10.006;2023-04-05T04:23:05;100294.88;;;0.59;66.21
66430;BME280;53242;51.694;10.006;2023-04-05T04:25:57;100298.41;;;0.58;66.03
66430;BME280;53242;51.694;10.006;2023-04-05T04:28:38;100301.28;;;0.67;65.82
66430;BME280;53242;51.694;10.006;2023-04-05T04:31:15;100301.34;;;0.78;65.15
66430;BME280;53242;51.694;10.006;2023-04-05T04:33:56;100308.75;;;0.71;65.31
66430;BME280;53242;51.694;10.006;2023-04-05T04:36:48;100304.25;;;0.73;65.45
66430;BME280;53242;51.694;10.006;2023-04-05T04:39:54;100314.38;;;0.65;65.44
66430;BME280;53242;51.694;10.006;2023-04-05T04:42:42;100314.56;;;0.75;65.05
66430;BME280;53242;51.694;10.006;2023-04-05T04:45:27;100308.56;;;0.61;65.82
66430;BME280;53242;51.694;10.006;2023-04-05T04:48:16;100309.75;;;0.57;65.52
66430;BME280;53242;51.694;10.006;2023-04-05T04:50:57;100320.63;;;0.62;65.66
66430;BME280;53242;51.694;10.006;2023-04-05T04:53:21;100313.34;;;0.68;65.18
66430;BME280;53242;51.694;10.006;2023-04-05T04:55:43;100318.59;;;0.55;64.84
66430;BME280;53242;51.694;10.006;2023-04-05T04:58:07;100318.25;;;0.59;65.30
66430;BME280;53242;51.694;10.006;2023-04-05T05:00:33;100319.47;;;0.67;65.47
66430;BME280;53242;51.694;10.006;2023-04-05T05:02:56;100322.06;;;0.67;64.79
66430;BME280;53242;51.694;10.006;2023-04-05T05:05:19;100325.06;;;0.49;65.85
66430;BME280;53242;51.694;10.006;2023-04-05T05:07:44;100330.03;;;0.52;65.84
66430;BME280;53242;51.694;10.006;2023-04-05T05:10:06;100327.97;;;0.44;66.53
66430;BME280;53242;51.694;10.006;2023-04-05T05:12:29;100333.94;;;0.58;66.48
66430;BME280;53242;51.694;10.006;2023-04-05T05:14:52;100335.34;;;0.75;65.73
66430;BME280;53242;51.694;10.006;2023-04-05T05:17:18;100334.00;;;0.69;65.65
66430;BME280;53242;51.694;10.006;2023-04-05T05:19:40;100333.44;;;0.77;65.38
66430;BME280;53242;51.694;10.006;2023-04-05T05:22:03;100335.13;;;0.78;65.33
66430;BME280;53242;51.694;10.006;2023-04-05T05:24:25;100342.69;;;0.81;66.27
66430;BME280;53242;51.694;10.006;2023-04-05T05:26:49;100335.44;;;0.97;66.00
66430;BME280;53242;51.694;10.006;2023-04-05T05:29:13;100338.72;;;0.88;66.10
66430;BME280;53242;51.694;10.006;2023-04-05T05:31:39;100342.97;;;0.89;66.19
66430;BME280;53242;51.694;10.006;2023-04-05T05:34:01;100339.94;;;0.95;66.91
66430;BME280;53242;51.694;10.006;2023-04-05T05:36:24;100338.41;;;0.93;66.77
66430;BME280;53242;51.694;10.006;2023-04-05T05:38:49;100340.81;;;0.83;68.00
66430;BME280;53242;51.694;10.006;2023-04-05T05:41:11;100333.06;;;0.94;67.54
66430;BME280;53242;51.694;10.006;2023-04-05T05:43:33;100340.31;;;1.02;67.52
66430;BME280;53242;51.694;10.006;2023-04-05T05:45:59;100339.19;;;1.18;67.38
66430;BME280;53242;51.694;10.006;2023-04-05T05:48:22;100337.84;;;1.12;67.74
66430;BME280;53242;51.694;10.006;2023-04-05T05:50:44;100337.16;;;1.10;67.67
66430;BME280;53242;51.694;10.006;2023-04-05T05:53:10;100338.28;;;1.30;67.26
66430;BME280;53242;51.694;10.006;2023-04-05T05:55:32;100341.47;;;1.34;67.13
66430;BME280;53242;51.694;10.006;2023-04-05T05:57:55;100326.72;;;1.34;67.44
66430;BME280;53242;51.694;10.006;2023-04-05T06:00:18;100329.91;;;1.38;67.36
66430;BME280;53242;51.694;10.006;2023-04-05T06:02:41;100338.88;;;1.34;67.67
66430;BME280;53242;51.694;10.006;2023-04-05T06:05:04;100327.91;;;1.41;67.92
66430;BME280;53242;51.694;10.006;2023-04-05T06:07:27;100331.22;;;1.43;67.55
66430;BME280;53242;51.694;10.006;2023-04-05T06:09:49;100329.81;;;1.39;67.89
66430;BME280;53242;51.694;10.006;2023-04-05T06:12:12;100332.91;;;1.56;67.27
66430;BME280;53242;51.694;10.006;2023-04-05T06:14:34;100332.19;;;1.54;67.75
66430;BME280;53242;51.694;10.006;2023-04-05T06:16:56;100336.19;;;1.46;67.85
66430;BME280;53242;51.694;10.006;2023-04-05T06:19:19;100338.69;;;1.48;68.04
66430;BME280;53242;51.694;10.006;2023-04-05T06:21:42;100331.28;;;1.55;67.99
66430;BME280;53242;51.694;10.006;2023-04-05T06:24:04;100331.75;;;1.60;67.96
66430;BME280;53242;51.694;10.006;2023-04-05T06:26:26;100330.09;;;1.59;68.17
66430;BME280;53242;51.694;10.006;2023-04-05T06:28:52;100325.69;;;1.59;68.34
66430;BME280;53242;51.694;10.006;2023-04-05T06:31:15;100327.34;;;1.60;68.04
66430;BME280;53242;51.694;10.006;2023-04-05T06:33:38;100335.22;;;1.83;66.93
66430;BME280;53242;51.694;10.006;2023-04-05T06:36:00;100325.13;;;1.78;67.35
66430;BME280;53242;51.694;10.006;2023-04-05T06:38:23;100328.31;;;1.71;68.50
66430;BME280;53242;51.694;10.006;2023-04-05T06:40:46;100325.72;;;1.71;68.06
66430;BME280;53242;51.694;10.006;2023-04-05T06:43:08;100331.88;;;1.70;68.05
66430;BME280;53242;51.694;10.006;2023-04-05T06:45:33;100326.44;;;1.84;67.58
66430;BME280;53242;51.694;10.006;2023-04-05T06:47:56;100324.31;;;1.78;67.29
66430;BME280;53242;51.694;10.006;2023-04-05T06:50:19;100326.44;;;1.95;68.27
66430;BME280;53242;51.694;10.006;2023-04-05T06:52:41;100325.03;;;2.14;67.46
66430;BME280;53242;51.694;10.006;2023-04-05T06:55:04;100330.00;;;2.06;68.20
66430;BME280;53242;51.694;10.006;2023-04-05T06:57:26;100321.72;;;2.23;67.04
66430;BME280;53242;51.694;10.006;2023-04-05T06:59:50;100322.06;;;2.30;66.64
66430;BME280;53242;51.694;10.006;2023-04-05T07:02:13;100322.06;;;2.19;67.52
66430;BME280;53242;51.694;10.006;2023-04-05T07:04:37;100327.13;;;2.32;67.17
66430;BME280;53242;51.694;10.006;2023-04-05T07:07:00;100321.19;;;2.41;67.63
66430;BME280;53242;51.694;10.006;2023-04-05T07:09:23;100318.63;;;2.18;67.68
66430;BME280;53242;51.694;10.006;2023-04-05T07:11:46;100318.25;;;2.34;67.51
66430;BME280;53242;51.694;10.006;2023-04-05T07:14:09;100322.97;;;2.52;67.21
66430;BME280;53242;51.694;10.006;2023-04-05T07:16:31;100325.19;;;2.56;67.10
66430;BME280;53242;51.694;10.006;2023-04-05T07:18:55;100318.66;;;2.73;66.36
66430;BME280;53242;51.694;10.006;2023-04-05T07:21:17;100311.81;;;2.61;67.20
66430;BME280;53242;51.694;10.006;2023-04-05T07:23:40;100319.16;;;2.67;66.81
66430;BME280;53242;51.694;10.006;2023-04-05T07:26:03;100314.97;;;2.76;66.75
66430;BME280;53242;51.694;10.006;2023-04-05T07:28:30;100307.63;;;2.81;66.95
66430;BME280;53242;51.694;10.006;2023-04-05T07:30:53;100310.38;;;2.68;66.94
66430;BME280;53242;51.694;10.006;2023-04-05T07:33:16;100311.91;;;2.71;67.19
66430;BME280;53242;51.694;10.006;2023-04-05T07:35:38;100307.13;;;2.87;67.95
66430;BME280;53242;51.694;10.006;2023-04-05T07:38:01;100307.91;;;3.20;65.89
66430;BME280;53242;51.694;10.006;2023-04-05T07:40:23;100312.44;;;3.18;65.99
66430;BME280;53242;51.694;10.006;2023-04-05T07:42:46;100309.38;;;3.13;66.43
66430;BME280;53242;51.694;10.006;2023-04-05T07:45:09;100308.47;;;3.45;65.34
66430;BME280;53242;51.694;10.006;2023-04-05T07:47:32;100309.50;;;3.54;64.71
66430;BME280;53242;51.694;10.006;2023-04-05T07:49:55;100316.44;;;3.43;64.99
66430;BME280;53242;51.694;10.006;2023-04-05T07:52:18;100316.00;;;3.38;64.93
66430;BME280;53242;51.694;10.006;2023-04-05T07:54:40;100317.72;;;3.28;65.33
66430;BME280;53242;51.694;10.006;2023-04-05T07:57:04;100309.00;;;3.39;64.76
66430;BME280;53242;51.694;10.006;2023-04-05T07:59:28;100307.13;;;3.72;64.40
66430;BME280;53242;51.694;10.006;2023-04-05T08:01:51;100314.34;;;3.58;64.16
66430;BME280;53242;51.694;10.006;2023-04-05T08:04:13;100312.47;;;3.70;64.19
66430;BME280;53242;51.694;10.006;2023-04-05T08:06:35;100314.91;;;3.62;64.43
66430;BME280;53242;51.694;10.006;2023-04-05T08:08:58;100316.03;;;3.90;64.33
66430;BME280;53242;51.694;10.006;2023-04-05T08:11:20;100310.75;;;3.81;64.17
66430;BME280;53242;51.694;10.006;2023-04-05T08:13:43;100305.03;;;3.97;63.93
66430;BME280;53242;51.694;10.006;2023-04-05T08:16:07;100307.88;;;4.24;63.54
66430;BME280;53242;51.694;10.006;2023-04-05T08:18:29;100309.88;;;4.52;61.93
66430;BME280;53242;51.694;10.006;2023-04-05T08:20:56;100319.50;;;4.51;61.62
66430;BME280;53242;51.694;10.006;2023-04-05T08:23:18;100307.53;;;4.58;61.52
66430;BME280;53242;51.694;10.006;2023-04-05T08:25:41;100303.97;;;4.69;61.19
66430;BME280;53242;51.694;10.006;2023-04-05T08:28:03;100304.50;;;4.53;61.55
66430;BME280;53242;51.694;10.006;2023-04-05T08:30:26;100305.72;;;4.49;61.87
66430;BME280;53242;51.694;10.006;2023-04-05T08:32:49;100303.13;;;4.49;61.74
66430;BME280;53242;51.694;10.006;2023-04-05T08:35:11;100296.56;;;4.74;61.03
66430;BME280;53242;51.694;10.006;2023-04-05T08:37:34;100292.56;;;4.80;61.64
66430;BME280;53242;51.694;10.006;2023-04-05T08:39:57;100302.19;;;4.89;60.56
66430;BME280;53242;51.694;10.006;2023-04-05T08:42:28;100291.72;;;5.19;60.65
66430;BME280;53242;51.694;10.006;2023-04-05T08:44:56;100285.66;;;5.08;59.71
66430;BME280;53242;51.694;10.006;2023-04-05T08:47:20;100287.03;;;5.32;59.52
66430;BME280;53242;51.694;10.006;2023-04-05T08:49:44;100288.63;;;5.53;58.81
66430;BME280;53242;51.694;10.006;2023-04-05T08:52:07;100293.88;;;5.53;58.82
66430;BME280;53242;51.694;10.006;2023-04-05T08:54:29;100288.94;;;5.30;58.77
66430;BME280;53242;51.694;10.006;2023-04-05T08:56:52;100286.69;;;5.55;58.41
66430;BME280;53242;51.694;10.006;2023-04-05T08:59:17;100289.03;;;5.58;57.40
66430;BME280;53242;51.694;10.006;2023-04-05T09:01:42;100288.03;;;5.69;57.54
66430;BME280;53242;51.694;10.006;2023-04-05T09:04:08;100291.34;;;5.71;58.37
66430;BME280;53242;51.694;10.006;2023-04-05T09:06:31;100287.09;;;5.98;57.01
66430;BME280;53242;51.694;10.006;2023-04-05T09:08:56;100283.69;;;6.25;54.63
66430;BME280;53242;51.694;10.006;2023-04-05T09:11:19;100290.66;;;6.34;55.39
66430;BME280;53242;51.694;10.006;2023-04-05T09:13:42;100282.25;;;6.31;55.03
66430;BME280;53242;51.694;10.006;2023-04-05T09:16:05;100282.84;;;6.70;54.72
66430;BME280;53242;51.694;10.006;2023-04-05T09:18:28;100288.78;;;6.72;51.50
66430;BME280;53242;51.694;10.006;2023-04-05T09:20:55;100276.47;;;6.73;52.18
66430;BME280;53242;51.694;10.006;2023-04-05T09:23:17;100275.34;;;6.94;50.23
66430;BME280;53242;51.694;10.006;2023-04-05T09:25:40;100273.44;;;7.04;50.86
66430;BME280;53242;51.694;10.006;2023-04-05T09:28:07;100266.53;;;7.47;48.40
66430;BME280;53242;51.694;10.006;2023-04-05T09:30:30;100269.56;;;7.34;48.61
66430;BME280;53242;51.694;10.006;2023-04-05T09:32:54;100275.69;;;7.17;46.73
66430;BME280;53242;51.694;10.006;2023-04-05T09:35:25;100260.66;;;7.27;47.77
66430;BME280;53242;51.694;10.006;2023-04-05T09:37:51;100266.34;;;7.75;45.64
66430;BME280;53242;51.694;10.006;2023-04-05T09:40:19;100269.31;;;7.80;43.48
66430;BME280;53242;51.694;10.006;2023-04-05T09:42:43;100267.56;;;7.89;40.29
66430;BME280;53242;51.694;10.006;2023-04-05T09:45:08;100267.97;;;7.41;41.85
66430;BME280;53242;51.694;10.006;2023-04-05T09:47:41;100266.88;;;7.26;43.49
66430;BME280;53242;51.694;10.006;2023-04-05T09:50:19;100259.16;;;7.24;42.58
66430;BME280;53242;51.694;10.006;2023-04-05T09:52:42;100257.00;;;7.46;40.59
66430;BME280;53242;51.694;10.006;2023-04-05T09:55:06;100259.25;;;7.15;41.89
66430;BME280;53242;51.694;10.006;2023-04-05T09:57:33;100259.84;;;7.27;41.16
66430;BME280;53242;51.694;10.006;2023-04-05T09:59:56;100267.25;;;6.87;39.96
66430;BME280;53242;51.694;10.006;2023-04-05T10:02:20;100259.03;;;7.08;40.29
66430;BME280;53242;51.694;10.006;2023-04-05T10:04:44;100252.44;;;7.30;39.71
66430;BME280;53242;51.694;10.006;2023-04-05T10:07:09;100252.25;;;7.84;40.09
66430;BME280;53242;51.694;10.006;2023-04-05T10:09:35;100252.75;;;7.88;39.16
66430;BME280;53242;51.694;10.006;2023-04-05T10:12:01;100241.06;;;8.25;39.08
66430;BME280;53242;51.694;10.006;2023-04-05T10:14:24;100242.00;;;8.67;37.57
66430;BME280;53242;51.694;10.006;2023-04-05T10:16:59;100239.03;;;8.70;38.47
66430;BME280;53242;51.694;10.006;2023-04-05T10:19:28;100231.00;;;8.12;39.44
66430;BME280;53242;51.694;10.006;2023-04-05T10:21:58;100243.75;;;7.90;38.26
66430;BME280;53242;51.694;10.006;2023-04-05T10:26:59;100238.16;;;7.24;37.76
66430;BME280;53242;51.694;10.006;2023-04-05T10:29:31;100226.66;;;7.86;37.09
66430;BME280;53242;51.694;10.006;2023-04-05T10:32:05;100228.59;;;8.35;36.86
66430;BME280;53242;51.694;10.006;2023-04-05T10:34:38;100229.19;;;7.70;38.11
66430;BME280;53242;51.694;10.006;2023-04-05T10:37:03;100232.03;;;8.28;37.60
66430;BME280;53242;51.694;10.006;2023-04-05T10:39:46;100229.09;;;8.31;36.17
66430;BME280;53242;51.694;10.006;2023-04-05T10:42:36;100225.44;;;8.32;38.68
66430;BME280;53242;51.694;10.006;2023-04-05T10:45:02;100216.97;;;8.63;38.29
66430;BME280;53242;51.694;10.006;2023-04-05T10:47:27;100216.47;;;8.92;38.43
66430;BME280;53242;51.694;10.006;2023-04-05T10:49:53;100212.50;;;9.13;38.17
66430;BME280;53242;51.694;10.006;2023-04-05T10:52:17;100201.13;;;9.20;38.60
66430;BME280;53242;51.694;10.006;2023-04-05T10:54:41;100210.41;;;8.83;38.98
66430;BME280;53242;51.694;10.006;2023-04-05T10:57:05;100207.25;;;8.96;38.17
66430;BME280;53242;51.694;10.006;2023-04-05T10:59:29;100208.19;;;9.28;39.15
66430;BME280;53242;51.694;10.006;2023-04-05T11:01:53;100205.94;;;8.92;38.46
66430;BME280;53242;51.694;10.006;2023-04-05T11:04:16;100211.66;;;9.20;36.82
66430;BME280;53242;51.694;10.006;2023-04-05T11:06:39;100210.34;;;8.34;36.79
66430;BME280;53242;51.694;10.006;2023-04-05T11:09:14;100214.03;;;8.91;36.68
66430;BME280;53242;51.694;10.006;2023-04-05T11:11:38;100204.28;;;8.42;38.04
66430;BME280;53242;51.694;10.006;2023-04-05T11:16:41;100208.59;;;8.76;37.28
66430;BME280;53242;51.694;10.006;2023-04-05T11:19:08;100199.88;;;8.59;37.40
66430;BME280;53242;51.694;10.006;2023-04-05T11:21:30;100203.84;;;7.95;36.93
66430;BME280;53242;51.694;10.006;2023-04-05T11:24:07;100202.47;;;7.74;38.21
66430;BME280;53242;51.694;10.006;2023-04-05T11:29:01;100179.25;;;8.13;37.62
66430;BME280;53242;51.694;10.006;2023-04-05T11:31:24;100188.63;;;7.64;37.94
66430;BME280;53242;51.694;10.006;2023-04-05T11:34:05;100185.75;;;7.49;38.36
66430;BME280;53242;51.694;10.006;2023-04-05T11:36:51;100192.41;;;7.35;38.33
66430;BME280;53242;51.694;10.006;2023-04-05T11:41:39;100184.22;;;7.04;38.71
66430;BME280;53242;51.694;10.006;2023-04-05T11:44:04;100175.66;;;7.28;38.66
66430;BME280;53242;51.694;10.006;2023-04-05T11:46:33;100173.97;;;7.53;38.48
66430;BME280;53242;51.694;10.006;2023-04-05T11:48:55;100165.03;;;7.38;38.81
66430;BME280;53242;51.694;10.006;2023-04-05T11:51:19;100160.97;;;7.17;39.33
66430;BME280;53242;51.694;10.006;2023-04-05T11:53:47;100163.88;;;7.40;39.89
66430;BME280;53242;51.694;10.006;2023-04-05T11:56:10;100160.53;;;7.56;39.58
66430;BME280;53242;51.694;10.006;2023-04-05T11:58:35;100158.72;;;7.57;39.46
66430;BME280;53242;51.694;10.006;2023-04-05T12:01:03;100159.59;;;7.74;39.12
66430;BME280;53242;51.694;10.006;2023-04-05T12:03:27;100147.34;;;7.91;39.22
66430;BME280;53242;51.694;10.006;2023-04-05T12:05:51;100152.75;;;7.98;39.45
66430;BME280;53242;51.694;10.006;2023-04-05T12:08:15;100146.53;;;7.99;39.86
66430;BME280;53242;51.694;10.006;2023-04-05T12:10:43;100153.31;;;8.18;37.68
66430;BME280;53242;51.694;10.006;2023-04-05T12:13:06;100141.50;;;8.55;38.85
66430;BME280;53242;51.694;10.006;2023-04-05T12:15:29;100138.22;;;8.61;39.35
66430;BME280;53242;51.694;10.006;2023-04-05T12:17:51;100143.91;;;9.06;39.01
66430;BME280;53242;51.694;10.006;2023-04-05T12:20:24;100142.91;;;8.99;38.32
66430;BME280;53242;51.694;10.006;2023-04-05T12:22:48;100143.19;;;9.29;37.17
66430;BME280;53242;51.694;10.006;2023-04-05T12:25:13;100132.75;;;8.87;35.30
66430;BME280;53242;51.694;10.006;2023-04-05T12:27:37;100136.03;;;8.89;36.17
66430;BME280;53242;51.694;10.006;2023-04-05T12:30:11;100133.53;;;9.04;36.53
66430;BME280;53242;51.694;10.006;2023-04-05T12:32:44;100132.25;;;9.40;35.70
66430;BME280;53242;51.694;10.006;2023-04-05T12:35:24;100125.38;;;9.39;35.50
66430;BME280;53242;51.694;10.006;2023-04-05T12:37:56;100120.72;;;9.41;36.97
66430;BME280;53242;51.694;10.006;2023-04-05T12:40:22;100118.91;;;9.02;35.74
66430;BME280;53242;51.694;10.006;2023-04-05T12:42:45;100109.19;;;9.11;35.51
66430;BME280;53242;51.694;10.006;2023-04-05T12:45:11;100105.59;;;9.35;35.99
66430;BME280;53242;51.694;10.006;2023-04-05T12:47:34;100103.88;;;9.50;36.06
66430;BME280;53242;51.694;10.006;2023-04-05T12:49:57;100099.53;;;9.66;36.26
66430;BME280;53242;51.694;10.006;2023-04-05T12:52:30;100095.50;;;9.78;36.98
66430;BME280;53242;51.694;10.006;2023-04-05T12:54:53;100102.63;;;9.69;35.63